Time;durP1;ratioP1;P1;durP2;ratioP2;P2;SDS_P1;SDS_P2;PMS_P1;PMS_P2;Temp;Humidity;BMP_temperature;BMP_pressure;BME280_temperature;BME280_humidity;BME280_pressure;Samples;Min_cycle;Max_cycle;Signal;HPM_P1;HPM_P2
2023/06/06 00:00:19;;;;;;;3.85;1.77;;;;;;;17.67;42.14;95291.56;5085075;28;20039;-77
2023/06/06 00:02:45;;;;;;;3.70;1.90;;;;;;;17.55;42.23;95284.19;5067654;28;20039;-76
2023/06/06 00:05:12;;;;;;;3.47;2.00;;;;;;;17.53;42.21;95274.34;5067847;28;20036;-76
2023/06/06 00:07:40;;;;;;;3.15;1.95;;;;;;;17.51;42.05;95281.63;5083452;28;20115;-76
2023/06/06 00:10:09;;;;;;;4.20;1.80;;;;;;;17.50;41.16;95280.09;5083846;28;20031;-76
2023/06/06 00:12:35;;;;;;;6.72;2.20;;;;;;;17.49;41.81;95272.97;5084619;28;20399;-76
2023/06/06 00:15:00;;;;;;;5.50;2.03;;;;;;;17.49;41.04;95278.53;5083010;28;20437;-77
2023/06/06 00:17:26;;;;;;;5.68;2.00;;;;;;;17.47;41.00;95276.22;5084870;28;20020;-76
2023/06/06 00:19:52;;;;;;;3.42;1.83;;;;;;;17.33;41.24;95271.41;5082789;28;20035;-77
2023/06/06 00:22:22;;;;;;;3.90;2.00;;;;;;;17.31;40.71;95278.66;5067551;28;20411;-76
2023/06/06 00:24:51;;;;;;;6.22;2.08;;;;;;;17.22;40.84;95269.16;5066149;28;20027;-76
2023/06/06 00:27:17;;;;;;;3.10;1.77;;;;;;;17.25;40.83;95268.19;5084030;28;20461;-76
2023/06/06 00:29:42;;;;;;;3.85;1.90;;;;;;;17.13;40.90;95268.41;5084045;28;20016;-78
2023/06/06 00:32:07;;;;;;;3.30;1.80;;;;;;;17.13;40.56;95273.97;5065823;28;20395;-76
2023/06/06 00:34:33;;;;;;;4.38;2.00;;;;;;;17.18;40.36;95276.13;5084448;28;20055;-76
2023/06/06 00:36:58;;;;;;;3.67;1.60;;;;;;;17.13;40.38;95276.75;5083793;28;20494;-77
2023/06/06 00:39:24;;;;;;;2.78;1.88;;;;;;;17.02;40.56;95274.50;5085604;28;20031;-76
2023/06/06 00:41:49;;;;;;;4.05;1.80;;;;;;;16.98;40.98;95276.69;5083615;28;20028;-76
2023/06/06 00:44:15;;;;;;;2.10;1.55;;;;;;;17.03;40.77;95278.81;5071218;28;20543;-77
2023/06/06 00:46:41;;;;;;;3.22;1.63;;;;;;;16.85;40.39;95274.13;5085078;28;20027;-77
2023/06/06 00:49:10;;;;;;;3.10;1.83;;;;;;;16.96;39.93;95268.81;5083360;28;20028;-76
2023/06/06 00:51:36;;;;;;;3.38;1.75;;;;;;;16.98;39.58;95279.47;5084090;28;20095;-76
2023/06/06 00:54:02;;;;;;;3.17;1.75;;;;;;;16.92;38.97;95273.03;5083855;28;20099;-76
2023/06/06 00:56:28;;;;;;;3.78;1.70;;;;;;;16.93;38.43;95280.13;5085453;28;20028;-76
2023/06/06 00:58:57;;;;;;;2.80;1.73;;;;;;;16.85;38.40;95284.44;5082326;28;20032;-76
2023/06/06 01:01:25;;;;;;;3.30;1.42;;;;;;;16.76;38.89;95281.72;5070277;28;20222;-76
2023/06/06 01:03:52;;;;;;;4.18;1.52;;;;;;;16.70;38.90;95296.25;5070108;28;20027;-77
2023/06/06 01:06:22;;;;;;;2.00;1.27;;;;;;;16.58;38.70;95288.09;5070972;28;20502;-76
2023/06/06 01:08:48;;;;;;;3.75;1.60;;;;;;;16.49;38.57;95288.88;5090128;28;20084;-76
2023/06/06 01:11:19;;;;;;;2.97;1.27;;;;;;;16.43;38.48;95282.41;5086866;28;20098;-76
2023/06/06 01:13:50;;;;;;;2.15;1.25;;;;;;;16.38;38.50;95292.13;5054902;28;20028;-76
2023/06/06 01:16:21;;;;;;;3.83;1.40;;;;;;;16.45;38.58;95282.72;5087302;28;20490;-76
2023/06/06 01:18:48;;;;;;;2.90;1.55;;;;;;;16.43;38.57;95282.41;5088161;28;20023;-76
2023/06/06 01:21:14;;;;;;;3.58;1.58;;;;;;;16.44;38.56;95295.81;5093261;28;20032;-76
2023/06/06 01:23:43;;;;;;;3.42;1.40;;;;;;;16.30;38.45;95296.47;5088177;28;20028;-76
2023/06/06 01:26:09;;;;;;;3.47;1.40;;;;;;;16.28;38.92;95293.38;5071784;28;20081;-77
2023/06/06 01:28:34;;;;;;;2.85;1.40;;;;;;;16.39;38.85;95296.44;5085770;28;20060;-78
2023/06/06 01:31:00;;;;;;;3.30;1.30;;;;;;;16.24;39.17;95297.59;5070985;28;20028;-75
2023/06/06 01:33:34;;;;;;;2.30;1.33;;;;;;;16.36;39.02;95296.63;5085689;28;20103;-77
2023/06/06 01:36:03;;;;;;;3.63;1.52;;;;;;;16.28;39.04;95287.84;5070881;28;20038;-75
2023/06/06 01:38:40;;;;;;;3.78;1.70;;;;;;;16.24;39.13;95298.34;5088881;28;20410;-78
2023/06/06 01:41:08;;;;;;;2.45;1.10;;;;;;;16.26;39.19;95295.09;5069938;28;20024;-77
2023/06/06 01:43:34;;;;;;;2.72;1.23;;;;;;;16.18;39.48;95292.66;5087040;28;20035;-77
2023/06/06 01:46:00;;;;;;;4.45;1.20;;;;;;;16.28;39.68;95290.63;5085699;28;20021;-77
2023/06/06 01:48:26;;;;;;;3.58;1.17;;;;;;;16.30;39.60;95301.25;5087829;28;20095;-77
2023/06/06 01:50:54;;;;;;;3.10;1.20;;;;;;;16.25;39.67;95307.44;5085412;28;20074;-77
2023/06/06 01:53:19;;;;;;;2.95;1.50;;;;;;;16.30;40.17;95301.25;5087699;28;20035;-77
2023/06/06 01:55:45;;;;;;;2.45;1.02;;;;;;;16.29;39.88;95292.19;5086081;28;20028;-76
2023/06/06 01:58:11;;;;;;;2.47;1.20;;;;;;;16.30;40.38;95304.03;5088474;28;20459;-76
2023/06/06 02:00:37;;;;;;;3.03;1.33;;;;;;;16.39;40.31;95307.53;5087019;28;20051;-76
2023/06/06 02:03:02;;;;;;;2.00;1.08;;;;;;;16.34;40.52;95304.63;5085507;28;20467;-77
2023/06/06 02:05:28;;;;;;;2.92;1.40;;;;;;;16.37;40.53;95301.69;5088652;28;20071;-76
2023/06/06 02:07:53;;;;;;;2.65;1.20;;;;;;;16.42;40.65;95308.63;5086287;28;20046;-76
2023/06/06 02:10:19;;;;;;;1.98;1.05;;;;;;;16.50;40.83;95309.06;5087503;28;20089;-77
2023/06/06 02:12:45;;;;;;;3.20;1.40;;;;;;;16.54;40.71;95316.00;5088038;28;20280;-77
2023/06/06 02:15:11;;;;;;;3.40;1.00;;;;;;;16.61;40.69;95312.88;5086904;28;20471;-76
2023/06/06 02:17:36;;;;;;;4.20;1.17;;;;;;;16.69;40.92;95316.88;5069239;28;20032;-76
2023/06/06 02:20:04;;;;;;;3.10;1.35;;;;;;;16.76;41.18;95317.81;5085597;28;20028;-76
2023/06/06 02:22:29;;;;;;;2.90;1.25;;;;;;;16.81;40.92;95323.50;5086784;28;20105;-77
2023/06/06 02:24:55;;;;;;;2.30;1.27;;;;;;;16.81;41.05;95329.06;5067826;28;20032;-76
2023/06/06 02:27:21;;;;;;;2.53;1.15;;;;;;;16.84;41.11;95330.13;5087182;28;20562;-76
2023/06/06 02:29:47;;;;;;;3.35;1.10;;;;;;;16.86;41.81;95333.97;5084727;28;20406;-76
2023/06/06 02:32:13;;;;;;;3.13;1.45;;;;;;;16.90;41.62;95331.78;5089428;28;20116;-77
2023/06/06 02:34:38;;;;;;;3.88;1.15;;;;;;;16.96;41.77;95326.38;5087725;28;20035;-76
2023/06/06 02:37:07;;;;;;;2.75;1.33;;;;;;;17.01;41.94;95325.72;5087269;28;20474;-76
2023/06/06 02:39:36;;;;;;;2.50;1.20;;;;;;;17.03;42.03;95333.59;5086272;28;20023;-77
2023/06/06 02:42:06;;;;;;;4.85;1.45;;;;;;;17.04;42.30;95330.34;5067736;28;20111;-76
2023/06/06 02:44:32;;;;;;;1.83;1.30;;;;;;;17.04;42.41;95330.34;5086773;28;20112;-77
2023/06/06 02:46:57;;;;;;;3.08;1.55;;;;;;;17.05;42.50;95342.22;5084185;28;20491;-76
2023/06/06 02:49:23;;;;;;;4.25;1.40;;;;;;;17.02;42.77;95341.16;5086838;28;20062;-76
2023/06/06 02:51:48;;;;;;;4.53;1.67;;;;;;;16.99;42.63;95337.31;5085794;28;20434;-77
2023/06/06 02:54:15;;;;;;;3.30;1.30;;;;;;;17.02;42.75;95340.38;5086129;28;20024;-76
2023/06/06 02:56:41;;;;;;;4.93;1.52;;;;;;;16.99;42.97;95342.09;5087019;28;20127;-77
2023/06/06 02:59:07;;;;;;;2.95;1.38;;;;;;;16.96;43.02;95337.47;5084586;28;20546;-76
2023/06/06 03:01:35;;;;;;;2.30;1.35;;;;;;;16.94;43.06;95337.94;5087570;28;20057;-78
2023/06/06 03:04:01;;;;;;;4.25;1.30;;;;;;;16.96;43.37;95340.25;5083718;28;20016;-77
2023/06/06 03:06:28;;;;;;;3.65;1.60;;;;;;;16.94;43.22;95342.72;5087439;28;20131;-77
2023/06/06 03:08:57;;;;;;;3.15;1.40;;;;;;;16.92;43.38;95336.88;5083648;28;20031;-77
2023/06/06 03:11:23;;;;;;;5.22;1.73;;;;;;;16.91;43.95;95338.09;5085909;28;20028;-77
2023/06/06 03:13:48;;;;;;;4.40;1.40;;;;;;;16.91;44.22;95343.66;5084689;28;20440;-77
2023/06/06 03:16:15;;;;;;;2.80;1.40;;;;;;;16.89;44.10;95348.91;5086441;28;20028;-77
2023/06/06 03:18:41;;;;;;;4.03;1.92;;;;;;;16.88;44.29;95344.59;5089146;28;20115;-77
2023/06/06 03:21:07;;;;;;;2.63;1.30;;;;;;;16.87;44.32;95351.41;5085020;28;20333;-77
2023/06/06 03:23:32;;;;;;;3.33;1.60;;;;;;;16.89;44.60;95349.69;5086701;28;20085;-77
2023/06/06 03:25:58;;;;;;;2.05;1.55;;;;;;;16.86;44.54;95342.31;5084626;28;20535;-77
2023/06/06 03:28:23;;;;;;;2.28;1.38;;;;;;;16.83;44.33;95346.00;5088288;28;20084;-77
2023/06/06 03:30:49;;;;;;;5.47;1.75;;;;;;;16.80;44.76;95341.38;5084003;28;20027;-76
2023/06/06 03:33:15;;;;;;;3.58;1.50;;;;;;;16.80;44.95;95348.94;5068120;28;20016;-77
2023/06/06 03:35:42;;;;;;;3.83;1.50;;;;;;;16.78;45.05;95337.53;5085214;28;20032;-77
2023/06/06 03:38:08;;;;;;;3.53;1.40;;;;;;;16.79;44.97;95348.19;5083730;28;20039;-77
2023/06/06 03:40:34;;;;;;;3.33;1.50;;;;;;;16.69;44.79;95344.66;5090714;28;20378;-76
2023/06/06 03:42:59;;;;;;;4.00;2.03;;;;;;;16.59;45.00;95356.22;5087551;28;20036;-76
2023/06/06 03:45:25;;;;;;;5.28;1.45;;;;;;;16.53;45.41;95353.31;5085552;28;20376;-75
2023/06/06 03:47:51;;;;;;;5.00;2.17;;;;;;;16.36;45.58;95354.88;5083539;28;20434;-76
2023/06/06 03:50:18;;;;;;;3.20;1.70;;;;;;;16.27;45.62;95355.66;5085103;28;20487;-77
2023/06/06 03:52:43;;;;;;;4.53;1.30;;;;;;;15.83;46.72;95342.13;5083932;28;20387;-77
2023/06/06 03:55:09;;;;;;;4.00;1.65;;;;;;;15.95;46.80;95351.53;5084204;28;20032;-75
2023/06/06 03:57:38;;;;;;;4.22;1.70;;;;;;;15.83;46.96;95349.69;5086187;28;20154;-77
2023/06/06 04:00:12;;;;;;;5.32;2.05;;;;;;;15.81;47.13;95352.13;5084248;28;20040;-76
2023/06/06 04:02:38;;;;;;;3.53;1.80;;;;;;;15.98;46.80;95349.81;5084925;28;20035;-77
2023/06/06 04:05:07;;;;;;;3.75;1.65;;;;;;;16.08;46.50;95352.13;5082485;28;20102;-77
2023/06/06 04:07:33;;;;;;;4.13;1.77;;;;;;;16.21;46.71;95351.97;5086066;28;20115;-75
2023/06/06 04:09:58;;;;;;;4.60;1.85;;;;;;;16.24;46.06;95355.84;5084032;28;20403;-75
2023/06/06 04:12:24;;;;;;;2.70;1.60;;;;;;;16.34;46.39;95352.56;5083760;28;20044;-74
2023/06/06 04:14:50;;;;;;;3.38;1.50;;;;;;;16.44;46.17;95347.78;5084312;28;20023;-75
2023/06/06 04:17:15;;;;;;;3.83;1.48;;;;;;;16.52;46.13;95349.00;5082564;28;20526;-75
2023/06/06 04:19:40;;;;;;;4.55;2.28;;;;;;;16.60;46.17;95352.97;5084605;28;20546;-75
2023/06/06 04:22:06;;;;;;;2.33;1.40;;;;;;;16.70;45.93;95357.31;5084814;28;20028;-74
2023/06/06 04:24:31;;;;;;;3.38;1.33;;;;;;;16.67;46.22;95357.44;5088321;28;20051;-75
2023/06/06 04:26:57;;;;;;;2.30;1.40;;;;;;;16.82;45.71;95360.38;5082858;28;20024;-75
2023/06/06 04:29:26;;;;;;;3.28;1.50;;;;;;;16.89;45.51;95362.81;5067069;28;20300;-75
2023/06/06 04:31:52;;;;;;;4.50;1.48;;;;;;;16.95;45.47;95361.69;5083624;28;20036;-74
2023/06/06 04:34:23;;;;;;;4.85;1.80;;;;;;;17.05;45.29;95365.22;5083701;28;20059;-75
2023/06/06 04:36:51;;;;;;;3.72;1.60;;;;;;;17.14;45.09;95353.28;5084226;28;20052;-75
2023/06/06 04:39:19;;;;;;;5.47;1.92;;;;;;;17.17;44.96;95350.34;5065560;28;20035;-75
2023/06/06 04:41:44;;;;;;;3.30;1.60;;;;;;;17.24;44.90;95347.22;5084224;28;20039;-76
2023/06/06 04:44:10;;;;;;;5.75;2.03;;;;;;;17.32;44.67;95355.19;5082253;28;20032;-75
2023/06/06 04:46:36;;;;;;;6.50;1.90;;;;;;;17.35;44.74;95348.72;5084097;28;20470;-75
2023/06/06 04:49:01;;;;;;;6.53;1.80;;;;;;;17.41;44.55;95358.72;5084751;28;20043;-75
2023/06/06 04:51:29;;;;;;;3.85;1.50;;;;;;;17.47;44.44;95356.81;5084527;28;20013;-74
2023/06/06 04:54:03;;;;;;;3.38;2.00;;;;;;;17.36;43.71;95350.25;5083885;28;20028;-77
2023/06/06 04:56:29;;;;;;;5.40;1.88;;;;;;;17.30;44.31;95352.13;5065034;28;20321;-76
2023/06/06 04:58:56;;;;;;;5.28;2.25;;;;;;;17.34;44.77;95336.06;5084213;28;20532;-75
2023/06/06 05:01:23;;;;;;;6.35;2.25;;;;;;;17.44;44.90;95345.91;5083254;28;20071;-76
2023/06/06 05:03:48;;;;;;;7.32;2.45;;;;;;;17.53;44.71;95346.59;5083749;28;20082;-75
2023/06/06 05:06:14;;;;;;;5.13;1.80;;;;;;;17.56;44.99;95350.47;5082710;28;20032;-76
2023/06/06 05:08:41;;;;;;;6.20;1.67;;;;;;;17.68;44.88;95351.47;5084424;28;20051;-76
2023/06/06 05:11:07;;;;;;;6.10;2.20;;;;;;;17.73;44.84;95348.81;5067057;28;20040;-76
2023/06/06 05:13:33;;;;;;;6.93;2.50;;;;;;;17.74;44.95;95344.81;5083608;28;20024;-75
2023/06/06 05:15:59;;;;;;;5.28;2.33;;;;;;;17.86;44.32;95353.38;5085524;28;20032;-76
2023/06/06 05:18:24;;;;;;;6.15;2.03;;;;;;;17.90;44.49;95351.19;5083001;28;20031;-76
2023/06/06 05:20:50;;;;;;;4.65;1.90;;;;;;;17.96;44.15;95349.28;5085751;28;20031;-76
2023/06/06 05:23:16;;;;;;;3.60;1.88;;;;;;;17.99;44.08;95356.66;5083923;28;20097;-76
2023/06/06 05:25:41;;;;;;;4.20;2.35;;;;;;;18.03;43.73;95348.91;5083721;28;20031;-76
2023/06/06 05:28:07;;;;;;;5.80;1.90;;;;;;;18.07;43.86;95346.72;5086964;28;20502;-76
2023/06/06 05:30:32;;;;;;;5.28;2.00;;;;;;;18.09;43.77;95347.00;5084211;28;20036;-76
2023/06/06 05:32:57;;;;;;;4.93;2.03;;;;;;;18.18;42.92;95349.72;5085494;28;20020;-76
2023/06/06 05:35:23;;;;;;;4.78;2.50;;;;;;;18.07;43.33;95329.28;5081794;28;20399;-76
2023/06/06 05:37:49;;;;;;;5.22;2.00;;;;;;;18.25;43.03;95352.13;5067290;28;20096;-75
2023/06/06 05:40:15;;;;;;;3.92;2.13;;;;;;;18.27;43.28;95348.88;5083176;28;20017;-74
2023/06/06 05:42:40;;;;;;;5.90;1.80;;;;;;;18.33;42.56;95354.53;5083102;28;20024;-74
2023/06/06 05:45:06;;;;;;;3.22;1.52;;;;;;;18.40;41.45;95354.16;5082254;28;20067;-74
2023/06/06 05:47:32;;;;;;;5.20;1.60;;;;;;;18.31;41.44;95347.44;5068915;28;20016;-77
2023/06/06 05:49:57;;;;;;;3.30;1.52;;;;;;;18.40;42.36;95352.13;5086862;28;20027;-76
2023/06/06 05:52:23;;;;;;;4.72;1.50;;;;;;;18.45;41.82;95345.13;5087357;28;20039;-76
2023/06/06 05:54:48;;;;;;;3.25;1.50;;;;;;;18.26;41.63;95342.53;5087121;28;20024;-76
2023/06/06 05:57:22;;;;;;;5.13;1.73;;;;;;;18.38;41.32;95343.50;5086827;28;20054;-76
2023/06/06 05:59:48;;;;;;;3.40;2.00;;;;;;;18.41;42.04;95339.78;5071254;28;20430;-76
2023/06/06 06:02:13;;;;;;;4.20;1.83;;;;;;;18.47;41.97;95335.06;5088536;28;20478;-77
2023/06/06 06:04:40;;;;;;;3.97;1.67;;;;;;;18.52;42.72;95337.19;5088183;28;20153;-77
2023/06/06 06:07:06;;;;;;;4.82;2.30;;;;;;;18.45;41.72;95342.34;5066312;28;20041;-77
2023/06/06 06:09:32;;;;;;;3.50;1.70;;;;;;;18.25;42.04;95340.22;5065587;28;20028;-78
2023/06/06 06:11:58;;;;;;;4.88;2.05;;;;;;;18.38;42.80;95340.72;5071613;28;20036;-77
2023/06/06 06:14:23;;;;;;;5.57;2.20;;;;;;;18.53;43.43;95338.72;5066419;28;20075;-77
2023/06/06 06:16:48;;;;;;;5.70;2.00;;;;;;;18.65;43.59;95336.91;5067025;28;20127;-76
2023/06/06 06:19:14;;;;;;;3.83;1.67;;;;;;;18.74;43.28;95336.06;5066237;28;20104;-76
2023/06/06 06:21:39;;;;;;;4.88;1.50;;;;;;;18.85;41.34;95341.81;5067812;28;20029;-77
2023/06/06 06:24:05;;;;;;;4.43;2.00;;;;;;;18.74;41.44;95334.03;5066452;28;20032;-77
2023/06/06 06:26:31;;;;;;;5.55;1.50;;;;;;;18.88;41.23;95331.72;5066136;28;20083;-77
2023/06/06 06:28:58;;;;;;;5.22;1.73;;;;;;;19.01;41.83;95334.97;5063011;28;20029;-75
2023/06/06 06:31:23;;;;;;;4.32;1.35;;;;;;;19.13;41.78;95347.06;5056002;28;20032;-74
2023/06/06 06:33:49;;;;;;;6.28;2.10;;;;;;;19.16;41.65;95335.72;5068775;28;20112;-75
2023/06/06 06:36:14;;;;;;;7.20;2.20;;;;;;;19.33;40.83;95341.56;5063271;28;20107;-76
2023/06/06 06:38:40;;;;;;;3.90;1.77;;;;;;;19.35;39.99;95337.00;5066196;28;20099;-76
2023/06/06 06:41:05;;;;;;;5.85;1.80;;;;;;;18.93;40.76;95331.06;5066043;28;20081;-76
2023/06/06 06:43:30;;;;;;;3.25;1.70;;;;;;;19.18;40.90;95322.06;5065542;28;20029;-75
2023/06/06 06:45:56;;;;;;;5.07;2.20;;;;;;;19.38;41.58;95324.09;5066584;28;20029;-76
2023/06/06 06:48:21;;;;;;;4.05;1.92;;;;;;;19.53;41.17;95329.66;5065079;28;20527;-75
2023/06/06 06:50:47;;;;;;;5.78;1.80;;;;;;;19.65;40.82;95323.00;5065761;28;20493;-81
2023/06/06 06:53:13;;;;;;;5.20;1.88;;;;;;;19.70;40.69;95321.53;5065642;28;20076;-76
2023/06/06 06:55:44;;;;;;;5.10;2.13;;;;;;;19.82;40.79;95328.78;5067333;28;20039;-76
2023/06/06 06:58:13;;;;;;;7.32;1.98;;;;;;;19.79;39.79;95321.41;5046835;28;20056;-76
2023/06/06 07:00:39;;;;;;;5.00;1.63;;;;;;;19.85;40.15;95325.03;5065876;28;20546;-75
2023/06/06 07:03:05;;;;;;;3.97;2.10;;;;;;;19.96;40.38;95333.53;5065841;28;20020;-76
2023/06/06 07:05:31;;;;;;;4.03;1.90;;;;;;;20.10;40.59;95331.91;5074147;28;20051;-77
2023/06/06 07:07:56;;;;;;;5.25;1.92;;;;;;;20.16;40.64;95324.38;5089171;28;20020;-78
2023/06/06 07:10:23;;;;;;;3.85;1.85;;;;;;;20.33;39.75;95328.09;5067341;28;20027;-78
2023/06/06 07:12:50;;;;;;;4.38;2.13;;;;;;;20.41;39.77;95332.00;5085841;28;20036;-77
2023/06/06 07:15:16;;;;;;;3.17;1.33;;;;;;;20.35;37.51;95331.16;5066900;28;20032;-75
2023/06/06 07:17:49;;;;;;;5.05;1.52;;;;;;;20.61;39.82;95333.22;5087184;28;20055;-73
2023/06/06 07:20:15;;;;;;;;;;;;;;;20.73;39.06;95331.31;5085006;28;20020;-77
2023/06/06 07:22:40;;;;;;;4.88;1.70;;;;;;;20.79;38.65;95327.28;5086449;28;20298;-79
2023/06/06 07:25:07;;;;;;;4.32;1.80;;;;;;;20.97;39.16;95319.81;5086435;28;20533;-79
2023/06/06 07:27:37;;;;;;;4.50;1.90;;;;;;;21.09;38.37;95322.19;5084018;28;20419;-79
2023/06/06 07:30:04;;;;;;;3.55;1.92;;;;;;;21.18;38.36;95327.63;5085630;28;20042;-77
2023/06/06 07:32:29;;;;;;;4.43;1.70;;;;;;;21.28;38.24;95328.19;5083334;28;20487;-77
2023/06/06 07:34:55;;;;;;;7.78;2.30;;;;;;;21.46;37.69;95327.81;5085768;28;20020;-80
2023/06/06 07:37:20;;;;;;;3.88;1.75;;;;;;;21.48;37.41;95324.53;5096083;28;20016;-84
2023/06/06 07:39:46;;;;;;;3.60;2.00;;;;;;;21.60;37.07;95322.56;5087701;28;20040;-85
2023/06/06 07:42:11;;;;;;;3.58;2.05;;;;;;;21.74;37.39;95325.19;5086477;28;20056;-81
2023/06/06 07:44:37;;;;;;;4.78;2.10;;;;;;;21.86;36.58;95328.03;5085174;28;20106;-78
2023/06/06 07:47:03;;;;;;;3.97;1.88;;;;;;;21.95;36.67;95325.00;5086459;28;20455;-79
2023/06/06 07:49:28;;;;;;;6.72;2.13;;;;;;;21.97;36.31;95322.50;5085031;28;20031;-82
2023/06/06 07:51:53;;;;;;;4.22;1.90;;;;;;;21.99;35.90;95323.50;5086496;28;20023;-80
2023/06/06 07:54:19;;;;;;;4.88;2.00;;;;;;;22.08;36.93;95321.75;5085021;28;20164;-80
2023/06/06 07:56:44;;;;;;;5.55;2.20;;;;;;;22.15;37.30;95319.28;5085378;28;20077;-80
2023/06/06 07:59:10;;;;;;;4.85;2.00;;;;;;;22.19;37.16;95327.41;5085342;28;20720;-79
2023/06/06 08:01:37;;;;;;;5.18;1.83;;;;;;;22.31;36.37;95329.00;5091020;28;20077;-79
2023/06/06 08:04:04;;;;;;;7.10;1.90;;;;;;;22.22;36.38;95315.22;5084450;28;20044;-80
2023/06/06 08:06:32;;;;;;;3.30;1.83;;;;;;;22.11;36.37;95329.16;5083203;28;20052;-80
2023/06/06 08:08:59;;;;;;;4.35;2.22;;;;;;;22.28;36.77;95318.78;5085925;28;20024;-79
2023/06/06 08:11:24;;;;;;;4.28;2.33;;;;;;;22.37;36.88;95312.97;5065775;28;20380;-80
2023/06/06 08:13:50;;;;;;;4.95;2.85;;;;;;;22.45;36.40;95322.41;5085250;28;20466;-83
2023/06/06 08:16:16;;;;;;;5.22;2.50;;;;;;;22.56;36.84;95320.88;5084318;28;20399;-79
2023/06/06 08:18:41;;;;;;;5.05;2.92;;;;;;;22.64;37.15;95324.72;5090547;28;20325;-79
2023/06/06 08:21:06;;;;;;;6.22;2.83;;;;;;;22.73;37.24;95319.63;5094419;28;20379;-79
2023/06/06 08:23:33;;;;;;;7.15;2.78;;;;;;;22.78;37.35;95320.91;5087031;28;20036;-80
2023/06/06 08:25:59;;;;;;;6.72;2.20;;;;;;;22.73;35.36;95327.28;5084614;28;20031;-80
2023/06/06 08:28:25;;;;;;;4.57;2.40;;;;;;;22.69;36.58;95321.91;5082458;28;20024;-79
2023/06/06 08:30:52;;;;;;;5.25;2.40;;;;;;;22.69;36.57;95316.31;5084643;28;20032;-79
2023/06/06 08:33:19;;;;;;;4.20;2.40;;;;;;;22.84;36.84;95318.13;5083747;28;20414;-80
2023/06/06 08:35:44;;;;;;;5.18;2.28;;;;;;;22.91;36.45;95314.84;5085691;28;20054;-80
2023/06/06 08:38:11;;;;;;;11.25;4.72;;;;;;;22.95;36.99;95316.13;5084261;28;20028;-79
2023/06/06 08:40:36;;;;;;;9.57;4.80;;;;;;;23.11;36.96;95311.00;5086202;28;20060;-79
2023/06/06 08:43:04;;;;;;;7.47;3.80;;;;;;;23.17;36.57;95304.13;5091494;28;20135;-81
2023/06/06 08:45:31;;;;;;;5.55;3.35;;;;;;;23.31;36.77;95311.50;5084138;28;20028;-79
2023/06/06 08:47:58;;;;;;;5.90;2.40;;;;;;;23.45;36.36;95306.09;5067588;28;20027;-78
2023/06/06 08:50:25;;;;;;;5.70;2.10;;;;;;;23.48;36.34;95305.84;5083499;28;20031;-79
2023/06/06 08:52:52;;;;;;;6.30;2.25;;;;;;;23.54;35.00;95306.59;5084746;28;20107;-79
2023/06/06 08:55:18;;;;;;;3.30;2.30;;;;;;;23.79;35.21;95301.19;5089074;28;20067;-79
2023/06/06 08:57:45;;;;;;;5.03;2.75;;;;;;;23.87;36.01;95301.44;5084077;28;20028;-79
2023/06/06 09:00:18;;;;;;;6.03;2.50;;;;;;;24.07;35.53;95292.66;5083519;28;20061;-79
2023/06/06 09:02:48;;;;;;;4.97;2.88;;;;;;;24.14;36.16;95294.91;5067137;28;20398;-79
2023/06/06 09:05:17;;;;;;;4.93;3.50;;;;;;;24.25;35.64;95294.09;5083948;28;20055;-79
2023/06/06 09:07:42;;;;;;;6.15;2.65;;;;;;;24.45;35.39;95288.16;5082093;28;20110;-79
2023/06/06 09:10:08;;;;;;;7.43;3.28;;;;;;;24.56;35.70;95290.13;5084331;28;20111;-82
2023/06/06 09:12:41;;;;;;;3.28;2.22;;;;;;;24.62;34.72;95283.19;5082854;28;20446;-79
2023/06/06 09:15:07;;;;;;;6.70;2.30;;;;;;;24.74;34.13;95278.25;5083248;28;20024;-79
2023/06/06 09:17:40;;;;;;;4.78;2.03;;;;;;;24.77;34.03;95274.38;5085028;28;20039;-79
2023/06/06 09:20:06;;;;;;;;;;;;;;;24.84;34.10;95268.19;5066096;28;20406;-79
2023/06/06 09:22:39;;;;;;;5.28;2.35;;;;;;;24.76;34.79;95267.22;5087167;28;19926;-79
2023/06/06 09:25:07;;;;;;;4.57;2.45;;;;;;;24.93;35.03;95272.72;5086119;28;20034;-79
2023/06/06 09:27:32;;;;;;;5.00;2.40;;;;;;;25.03;34.75;95273.16;5087874;28;20043;-78
2023/06/06 09:29:58;;;;;;;4.25;2.10;;;;;;;25.18;34.66;95272.78;5086382;28;20427;-77
2023/06/06 09:32:28;;;;;;;5.18;2.60;;;;;;;25.28;34.99;95274.72;5088270;28;20110;-80
2023/06/06 09:34:54;;;;;;;7.55;3.08;;;;;;;25.43;34.67;95263.81;5088882;28;20111;-79
2023/06/06 09:37:23;;;;;;;4.35;2.65;;;;;;;25.56;34.54;95268.03;5087253;28;20040;-77
2023/06/06 09:40:17;;;;;;;4.05;2.63;;;;;;;25.83;34.02;95271.88;5087496;28;20490;-77
2023/06/06 09:42:47;;;;;;;3.78;2.35;;;;;;;26.00;33.17;95266.03;5087402;28;20028;-77
2023/06/06 09:45:13;;;;;;;4.00;2.25;;;;;;;26.09;33.56;95257.19;5091041;28;20085;-78
2023/06/06 09:47:42;;;;;;;7.38;2.65;;;;;;;26.38;32.31;95258.31;5094495;28;20031;-77
2023/06/06 09:50:08;;;;;;;5.07;2.85;;;;;;;26.64;32.99;95254.91;5091596;28;20043;-78
2023/06/06 09:52:34;;;;;;;4.88;3.00;;;;;;;26.87;32.89;95258.13;5087332;28;20138;-77
2023/06/06 09:55:00;;;;;;;3.83;2.72;;;;;;;26.88;32.74;95256.81;5087196;28;20046;-79
2023/06/06 09:57:26;;;;;;;3.90;2.38;;;;;;;27.01;32.83;95245.56;5089134;28;20020;-78
2023/06/06 09:59:53;;;;;;;6.00;3.20;;;;;;;26.94;33.09;95244.16;5085196;28;20051;-78
2023/06/06 10:02:21;;;;;;;5.65;2.80;;;;;;;27.11;32.46;95241.06;5086884;28;20482;-79
2023/06/06 10:04:47;;;;;;;8.40;4.22;;;;;;;27.19;32.19;95241.97;5086334;28;20032;-77
2023/06/06 10:07:13;;;;;;;6.13;3.47;;;;;;;27.55;31.69;95244.38;5086658;28;20028;-78
2023/06/06 10:09:40;;;;;;;4.15;2.60;;;;;;;27.64;30.79;95235.47;5086629;28;20043;-79
2023/06/06 10:12:06;;;;;;;3.45;2.33;;;;;;;27.75;30.72;95237.34;5085797;28;20077;-80
2023/06/06 10:14:32;;;;;;;3.60;2.28;;;;;;;27.66;30.88;95221.56;5086880;28;20032;-79
2023/06/06 10:16:59;;;;;;;3.78;2.72;;;;;;;27.71;30.74;95225.63;5086123;28;20405;-79
2023/06/06 10:19:25;;;;;;;3.78;2.30;;;;;;;27.74;30.58;95230.16;5086835;28;20128;-79
2023/06/06 10:21:51;;;;;;;4.50;2.40;;;;;;;27.20;31.11;95232.19;5085533;28;20093;-78
2023/06/06 10:24:17;;;;;;;6.68;2.60;;;;;;;26.82;31.54;95228.72;5086012;28;20028;-79
2023/06/06 10:27:00;;;;;;;4.32;2.30;;;;;;;26.70;31.85;95233.78;5087204;28;20030;-81
2023/06/06 10:29:27;;;;;;;;;;;;;;;26.99;32.64;95228.44;5085569;28;20051;-83
2023/06/06 10:31:57;;;;;;;3.65;2.65;;;;;;;27.20;31.84;95220.91;5087104;28;19912;-80
2023/06/06 10:34:33;;;;;;;5.53;2.50;;;;;;;27.16;31.45;95208.41;5083637;28;20081;-80
2023/06/06 10:37:13;;;;;;;2.65;2.05;;;;;;;27.23;31.21;95214.16;5093106;28;20039;-80
2023/06/06 10:39:41;;;;;;;5.35;2.55;;;;;;;27.39;31.65;95220.03;5078668;28;20036;-80
2023/06/06 10:42:07;;;;;;;5.00;2.40;;;;;;;27.37;30.98;95211.38;5089809;28;20055;-85
2023/06/06 10:44:35;;;;;;;3.83;2.58;;;;;;;27.29;31.44;95214.06;5091105;28;20020;-79
2023/06/06 10:47:27;;;;;;;3.33;2.22;;;;;;;27.38;30.73;95218.53;5084781;28;20448;-76
2023/06/06 10:50:08;;;;;;;4.05;2.33;;;;;;;27.46;30.42;95208.84;5083000;28;20040;-75
2023/06/06 10:52:52;;;;;;;3.65;2.35;;;;;;;27.31;31.36;95196.59;5090472;28;20016;-79
2023/06/06 10:55:43;;;;;;;5.45;2.97;;;;;;;27.37;31.75;95197.25;5086149;28;20521;-80
2023/06/06 10:58:13;;;;;;;3.38;2.70;;;;;;;27.44;31.37;95188.13;5086550;28;20145;-81
2023/06/06 11:00:42;;;;;;;3.70;2.70;;;;;;;27.53;31.48;95182.06;5084278;28;20085;-81
2023/06/06 11:03:15;;;;;;;8.18;2.50;;;;;;;27.70;31.18;95188.16;5087109;28;20410;-81
2023/06/06 11:06:08;;;;;;;3.55;2.35;;;;;;;27.47;30.79;95172.91;5085033;28;20039;-81
2023/06/06 11:08:35;;;;;;;4.43;2.60;;;;;;;27.69;31.67;95174.53;5085481;28;20028;-80
2023/06/06 11:11:14;;;;;;;4.03;2.25;;;;;;;27.91;31.29;95167.69;5087886;28;20035;-81
2023/06/06 11:13:59;;;;;;;3.55;2.15;;;;;;;28.09;30.68;95168.81;5084031;28;20027;-81
2023/06/06 11:16:47;;;;;;;3.45;2.40;;;;;;;28.25;30.42;95165.63;5067807;28;20188;-80
2023/06/06 11:19:15;;;;;;;3.60;2.58;;;;;;;28.41;30.23;95162.97;5076114;28;20544;-81
2023/06/06 11:21:42;;;;;;;6.07;2.17;;;;;;;28.17;29.45;95159.13;5067094;28;20124;-80
2023/06/06 11:24:08;;;;;;;3.22;2.40;;;;;;;28.20;29.56;95158.03;5085656;28;20114;-81
2023/06/06 11:26:35;;;;;;;3.72;2.47;;;;;;;28.02;29.95;95153.31;5066854;28;20062;-77
2023/06/06 11:29:00;;;;;;;3.40;2.10;;;;;;;28.26;29.68;95153.00;5084738;28;20061;-78
2023/06/06 11:31:26;;;;;;;5.35;2.20;;;;;;;28.35;29.71;95143.31;5086366;28;20094;-78
2023/06/06 11:33:53;;;;;;;3.30;2.40;;;;;;;28.58;29.88;95146.38;5084046;28;20104;-78